sensor_id;sensor_type;location;lat;lon;timestamp;pressure;altitude;pressure_sealevel;temperature;humidity
56825;BME280;42705;50.326;18.772;2024-02-21T00:04:10;99165.20;;;4.34;79.37
56825;BME280;42705;50.326;18.772;2024-02-21T00:09:32;99164.15;;;4.35;79.46
56825;BME280;42705;50.326;18.772;2024-02-21T00:14:54;99160.55;;;4.31;79.45
56825;BME280;42705;50.326;18.772;2024-02-21T00:20:16;99153.71;;;4.30;79.50
56825;BME280;42705;50.326;18.772;2024-02-21T00:25:39;99151.33;;;4.32;79.75
56825;BME280;42705;50.326;18.772;2024-02-21T00:31:01;99151.94;;;4.31;79.76
56825;BME280;42705;50.326;18.772;2024-02-21T00:36:24;99143.63;;;4.27;79.84
56825;BME280;42705;50.326;18.772;2024-02-21T00:41:46;99138.38;;;4.22;79.93
56825;BME280;42705;50.326;18.772;2024-02-21T00:47:08;99129.27;;;4.18;79.90
56825;BME280;42705;50.326;18.772;2024-02-21T00:52:29;99127.40;;;4.17;80.09
56825;BME280;42705;50.326;18.772;2024-02-21T00:57:51;99127.57;;;4.18;80.33
56825;BME280;42705;50.326;18.772;2024-02-21T01:03:13;99125.10;;;4.15;80.11
56825;BME280;42705;50.326;18.772;2024-02-21T01:08:35;99125.73;;;4.17;80.22
56825;BME280;42705;50.326;18.772;2024-02-21T01:13:57;99121.28;;;4.22;80.29
56825;BME280;42705;50.326;18.772;2024-02-21T01:19:19;99120.14;;;4.24;80.40
56825;BME280;42705;50.326;18.772;2024-02-21T01:24:42;99114.27;;;4.20;80.11
56825;BME280;42705;50.326;18.772;2024-02-21T01:30:05;99111.23;;;4.19;80.24
56825;BME280;42705;50.326;18.772;2024-02-21T01:35:27;99101.98;;;4.17;80.19
56825;BME280;42705;50.326;18.772;2024-02-21T01:40:49;99100.88;;;4.12;80.41
56825;BME280;42705;50.326;18.772;2024-02-21T01:46:11;99091.73;;;4.09;80.31
56825;BME280;42705;50.326;18.772;2024-02-21T01:51:33;99085.56;;;4.08;80.42
56825;BME280;42705;50.326;18.772;2024-02-21T01:56:56;99083.36;;;4.07;80.50
56825;BME280;42705;50.326;18.772;2024-02-21T02:02:18;99082.09;;;4.08;80.59
56825;BME280;42705;50.326;18.772;2024-02-21T02:07:40;99078.58;;;4.09;80.66
56825;BME280;42705;50.326;18.772;2024-02-21T02:13:02;99074.43;;;4.06;80.62
56825;BME280;42705;50.326;18.772;2024-02-21T02:18:24;99064.48;;;4.04;80.70
56825;BME280;42705;50.326;18.772;2024-02-21T02:23:46;99064.70;;;4.03;80.75
56825;BME280;42705;50.326;18.772;2024-02-21T02:29:09;99059.17;;;4.03;80.76
56825;BME280;42705;50.326;18.772;2024-02-21T02:34:34;99058.39;;;4.05;80.64
56825;BME280;42705;50.326;18.772;2024-02-21T02:39:56;99059.94;;;3.99;80.83
56825;BME280;42705;50.326;18.772;2024-02-21T02:45:19;99057.51;;;3.92;80.83
56825;BME280;42705;50.326;18.772;2024-02-21T02:50:41;99052.54;;;3.88;81.04
56825;BME280;42705;50.326;18.772;2024-02-21T02:56:03;99048.31;;;3.84;81.19
56825;BME280;42705;50.326;18.772;2024-02-21T03:01:25;99044.21;;;3.80;81.27
56825;BME280;42705;50.326;18.772;2024-02-21T03:06:47;99042.34;;;3.82;81.58
56825;BME280;42705;50.326;18.772;2024-02-21T03:12:09;99040.73;;;3.83;81.44
56825;BME280;42705;50.326;18.772;2024-02-21T03:17:31;99038.80;;;3.87;81.56
56825;BME280;42705;50.326;18.772;2024-02-21T03:22:55;99035.46;;;3.94;81.65
56825;BME280;42705;50.326;18.772;2024-02-21T03:28:17;99030.48;;;3.97;81.53
56825;BME280;42705;50.326;18.772;2024-02-21T03:33:42;99029.08;;;3.98;81.55
56825;BME280;42705;50.326;18.772;2024-02-21T03:39:05;99030.60;;;3.98;81.52
56825;BME280;42705;50.326;18.772;2024-02-21T03:44:27;99028.98;;;3.96;81.67
56825;BME280;42705;50.326;18.772;2024-02-21T03:49:49;99029.92;;;3.95;81.73
56825;BME280;42705;50.326;18.772;2024-02-21T03:55:11;99032.52;;;3.98;81.54
56825;BME280;42705;50.326;18.772;2024-02-21T04:00:33;99028.34;;;4.01;81.79
56825;BME280;42705;50.326;18.772;2024-02-21T04:05:55;99035.19;;;4.02;81.73
56825;BME280;42705;50.326;18.772;2024-02-21T04:11:17;99034.83;;;4.06;81.67
56825;BME280;42705;50.326;18.772;2024-02-21T04:16:40;99036.22;;;4.06;81.73
56825;BME280;42705;50.326;18.772;2024-02-21T04:22:02;99029.11;;;4.03;81.55
56825;BME280;42705;50.326;18.772;2024-02-21T04:27:24;99016.91;;;4.05;81.69
56825;BME280;42705;50.326;18.772;2024-02-21T04:32:46;99012.53;;;4.06;81.57
56825;BME280;42705;50.326;18.772;2024-02-21T04:38:08;99009.85;;;4.08;81.71
56825;BME280;42705;50.326;18.772;2024-02-21T04:43:30;99003.92;;;4.09;81.63
56825;BME280;42705;50.326;18.772;2024-02-21T04:48:53;98998.48;;;4.07;81.60
56825;BME280;42705;50.326;18.772;2024-02-21T04:54:15;98991.46;;;4.05;81.58
56825;BME280;42705;50.326;18.772;2024-02-21T04:59:37;98993.55;;;4.06;81.58
56825;BME280;42705;50.326;18.772;2024-02-21T05:04:59;98990.67;;;4.01;81.50
56825;BME280;42705;50.326;18.772;2024-02-21T05:10:20;98985.75;;;4.00;81.40
56825;BME280;42705;50.326;18.772;2024-02-21T05:15:42;98983.06;;;3.98;81.46
56825;BME280;42705;50.326;18.772;2024-02-21T05:21:04;98975.63;;;3.98;81.52
56825;BME280;42705;50.326;18.772;2024-02-21T05:26:27;98977.42;;;4.00;81.40
56825;BME280;42705;50.326;18.772;2024-02-21T05:37:18;98975.98;;;3.95;81.39
56825;BME280;42705;50.326;18.772;2024-02-21T05:42:40;98975.13;;;3.98;81.55
56825;BME280;42705;50.326;18.772;2024-02-21T05:48:04;98976.10;;;3.99;81.42
56825;BME280;42705;50.326;18.772;2024-02-21T05:53:26;98980.31;;;3.98;81.44
56825;BME280;42705;50.326;18.772;2024-02-21T05:58:48;98971.58;;;3.99;81.49
56825;BME280;42705;50.326;18.772;2024-02-21T06:04:09;98976.50;;;4.01;81.51
56825;BME280;42705;50.326;18.772;2024-02-21T06:09:31;98971.05;;;4.05;81.55
56825;BME280;42705;50.326;18.772;2024-02-21T06:14:53;98965.40;;;4.08;81.57
56825;BME280;42705;50.326;18.772;2024-02-21T06:20:18;98970.77;;;4.11;81.60
56825;BME280;42705;50.326;18.772;2024-02-21T06:25:40;98971.33;;;4.13;81.57
56825;BME280;42705;50.326;18.772;2024-02-21T06:31:02;98966.61;;;4.14;81.56
56825;BME280;42705;50.326;18.772;2024-02-21T06:36:25;98965.70;;;4.15;81.48
56825;BME280;42705;50.326;18.772;2024-02-21T06:41:47;98959.61;;;4.19;81.51
56825;BME280;42705;50.326;18.772;2024-02-21T06:47:09;98959.19;;;4.24;81.42
56825;BME280;42705;50.326;18.772;2024-02-21T06:52:31;98956.63;;;4.32;81.52
56825;BME280;42705;50.326;18.772;2024-02-21T06:57:53;98962.05;;;4.43;81.52
56825;BME280;42705;50.326;18.772;2024-02-21T07:03:15;98968.35;;;4.51;81.52
56825;BME280;42705;50.326;18.772;2024-02-21T07:08:36;98971.52;;;4.53;81.33
56825;BME280;42705;50.326;18.772;2024-02-21T07:13:59;98967.54;;;4.56;81.15
56825;BME280;42705;50.326;18.772;2024-02-21T07:19:20;98960.34;;;4.55;81.05
56825;BME280;42705;50.326;18.772;2024-02-21T07:24:42;98959.81;;;4.52;81.02
56825;BME280;42705;50.326;18.772;2024-02-21T07:30:05;98957.72;;;4.55;80.97
56825;BME280;42705;50.326;18.772;2024-02-21T07:35:27;98952.38;;;4.64;80.89
56825;BME280;42705;50.326;18.772;2024-02-21T07:40:49;98946.77;;;4.68;80.97
56825;BME280;42705;50.326;18.772;2024-02-21T07:46:11;98939.52;;;4.83;81.01
56825;BME280;42705;50.326;18.772;2024-02-21T07:51:33;98937.16;;;4.99;80.82
56825;BME280;42705;50.326;18.772;2024-02-21T07:56:55;98931.23;;;5.11;80.52
56825;BME280;42705;50.326;18.772;2024-02-21T08:02:17;98923.33;;;5.30;80.47
56825;BME280;42705;50.326;18.772;2024-02-21T08:07:40;98918.88;;;5.43;80.12
56825;BME280;42705;50.326;18.772;2024-02-21T08:13:03;98921.52;;;5.43;79.85
56825;BME280;42705;50.326;18.772;2024-02-21T08:18:25;98917.86;;;5.41;79.73
56825;BME280;42705;50.326;18.772;2024-02-21T08:23:47;98907.65;;;5.41;79.82
56825;BME280;42705;50.326;18.772;2024-02-21T08:29:16;98896.88;;;5.41;79.52
56825;BME280;42705;50.326;18.772;2024-02-21T08:34:38;98895.61;;;5.55;79.57
56825;BME280;42705;50.326;18.772;2024-02-21T08:40:00;98890.77;;;5.63;79.49
56825;BME280;42705;50.326;18.772;2024-02-21T08:45:30;98881.05;;;5.66;79.02
56825;BME280;42705;50.326;18.772;2024-02-21T08:50:52;98869.22;;;5.84;79.18
56825;BME280;42705;50.326;18.772;2024-02-21T08:56:15;98872.07;;;6.02;79.03
56825;BME280;42705;50.326;18.772;2024-02-21T09:01:37;98868.20;;;6.11;78.78
56825;BME280;42705;50.326;18.772;2024-02-21T09:06:59;98869.05;;;6.32;78.35
56825;BME280;42705;50.326;18.772;2024-02-21T09:12:21;98866.80;;;6.66;77.98
56825;BME280;42705;50.326;18.772;2024-02-21T09:17:43;98864.84;;;6.95;77.72
56825;BME280;42705;50.326;18.772;2024-02-21T09:23:05;98865.81;;;7.18;77.17
56825;BME280;42705;50.326;18.772;2024-02-21T09:28:27;98876.03;;;7.41;76.67
56825;BME280;42705;50.326;18.772;2024-02-21T09:33:49;98876.59;;;7.35;75.17
56825;BME280;42705;50.326;18.772;2024-02-21T09:39:11;98881.84;;;7.32;74.76
56825;BME280;42705;50.326;18.772;2024-02-21T09:44:37;98879.58;;;7.30;74.21
56825;BME280;42705;50.326;18.772;2024-02-21T09:50:01;98879.90;;;7.33;73.75
56825;BME280;42705;50.326;18.772;2024-02-21T09:55:26;98877.45;;;7.35;73.41
56825;BME280;42705;50.326;18.772;2024-02-21T10:00:49;98871.25;;;7.37;73.36
56825;BME280;42705;50.326;18.772;2024-02-21T10:06:11;98868.09;;;7.47;73.61
56825;BME280;42705;50.326;18.772;2024-02-21T10:11:33;98873.16;;;7.54;73.44
56825;BME280;42705;50.326;18.772;2024-02-21T10:16:58;98873.58;;;7.61;73.02
56825;BME280;42705;50.326;18.772;2024-02-21T10:22:25;98869.57;;;7.63;72.44
56825;BME280;42705;50.326;18.772;2024-02-21T10:27:48;98861.33;;;7.74;72.28
56825;BME280;42705;50.326;18.772;2024-02-21T10:33:15;98863.76;;;7.86;71.76
56825;BME280;42705;50.326;18.772;2024-02-21T10:38:38;98853.40;;;7.88;71.41
56825;BME280;42705;50.326;18.772;2024-02-21T10:44:03;98849.77;;;7.94;70.91
56825;BME280;42705;50.326;18.772;2024-02-21T10:49:29;98847.01;;;7.94;70.50
56825;BME280;42705;50.326;18.772;2024-02-21T10:55:04;98832.33;;;7.91;70.67
56825;BME280;42705;50.326;18.772;2024-02-21T11:00:27;98831.10;;;7.98;70.43
56825;BME280;42705;50.326;18.772;2024-02-21T11:05:52;98820.04;;;8.06;70.42
56825;BME280;42705;50.326;18.772;2024-02-21T11:11:14;98804.59;;;8.06;70.22
56825;BME280;42705;50.326;18.772;2024-02-21T11:16:41;98798.80;;;7.97;69.44
56825;BME280;42705;50.326;18.772;2024-02-21T11:22:17;98791.29;;;7.92;69.57
56825;BME280;42705;50.326;18.772;2024-02-21T11:27:45;98795.25;;;7.86;68.46
56825;BME280;42705;50.326;18.772;2024-02-21T11:33:07;98786.62;;;7.78;68.70
56825;BME280;42705;50.326;18.772;2024-02-21T11:38:29;98787.14;;;7.73;69.21
56825;BME280;42705;50.326;18.772;2024-02-21T11:43:51;98783.09;;;7.64;68.84
56825;BME280;42705;50.326;18.772;2024-02-21T11:49:13;98777.75;;;7.57;69.13
56825;BME280;42705;50.326;18.772;2024-02-21T11:54:35;98771.40;;;7.53;69.45
56825;BME280;42705;50.326;18.772;2024-02-21T11:59:57;98775.29;;;7.45;69.73
56825;BME280;42705;50.326;18.772;2024-02-21T12:05:21;98772.02;;;7.35;70.28
56825;BME280;42705;50.326;18.772;2024-02-21T12:11:22;98772.34;;;7.23;69.92
56825;BME280;42705;50.326;18.772;2024-02-21T12:16:47;98768.02;;;7.13;70.06
56825;BME280;42705;50.326;18.772;2024-02-21T12:22:16;98761.05;;;7.04;70.87
56825;BME280;42705;50.326;18.772;2024-02-21T12:27:38;98753.27;;;7.01;71.66
56825;BME280;42705;50.326;18.772;2024-02-21T12:33:00;98749.02;;;6.92;72.67
56825;BME280;42705;50.326;18.772;2024-02-21T12:38:23;98751.72;;;6.86;72.84
56825;BME280;42705;50.326;18.772;2024-02-21T12:43:45;98752.31;;;6.79;73.06
56825;BME280;42705;50.326;18.772;2024-02-21T12:49:07;98738.73;;;6.83;73.37
56825;BME280;42705;50.326;18.772;2024-02-21T12:54:32;98731.81;;;6.97;73.65
56825;BME280;42705;50.326;18.772;2024-02-21T12:59:54;98725.34;;;7.17;73.71
56825;BME280;42705;50.326;18.772;2024-02-21T13:05:16;98708.25;;;7.37;73.97
56825;BME280;42705;50.326;18.772;2024-02-21T13:10:38;98698.30;;;7.45;73.51
56825;BME280;42705;50.326;18.772;2024-02-21T13:16:00;98690.66;;;7.47;73.27
56825;BME280;42705;50.326;18.772;2024-02-21T13:21:22;98685.38;;;7.44;73.02
56825;BME280;42705;50.326;18.772;2024-02-21T13:26:44;98680.01;;;7.46;73.32
56825;BME280;42705;50.326;18.772;2024-02-21T13:32:06;98676.89;;;7.48;72.95
56825;BME280;42705;50.326;18.772;2024-02-21T13:37:29;98675.52;;;7.45;73.17
56825;BME280;42705;50.326;18.772;2024-02-21T13:42:51;98671.17;;;7.41;73.29
56825;BME280;42705;50.326;18.772;2024-02-21T13:48:16;98670.89;;;7.40;73.15
56825;BME280;42705;50.326;18.772;2024-02-21T13:54:00;98663.20;;;7.38;73.41
56825;BME280;42705;50.326;18.772;2024-02-21T13:59:23;98654.03;;;7.35;73.14
56825;BME280;42705;50.326;18.772;2024-02-21T14:04:45;98644.98;;;7.33;73.09
56825;BME280;42705;50.326;18.772;2024-02-21T14:10:08;98634.65;;;7.29;73.32
56825;BME280;42705;50.326;18.772;2024-02-21T14:15:31;98623.13;;;7.37;73.55
56825;BME280;42705;50.326;18.772;2024-02-21T14:20:59;98615.09;;;7.51;73.35
56825;BME280;42705;50.326;18.772;2024-02-21T14:26:21;98603.94;;;7.64;73.00
56825;BME280;42705;50.326;18.772;2024-02-21T14:31:53;98588.64;;;8.49;71.73
56825;BME280;42705;50.326;18.772;2024-02-21T14:37:16;98578.17;;;10.48;68.56
56825;BME280;42705;50.326;18.772;2024-02-21T14:42:39;98578.52;;;10.07;68.69
56825;BME280;42705;50.326;18.772;2024-02-21T14:48:01;98581.94;;;9.32;68.75
56825;BME280;42705;50.326;18.772;2024-02-21T14:53:23;98573.01;;;8.59;68.83
56825;BME280;42705;50.326;18.772;2024-02-21T14:58:46;98575.56;;;8.09;69.39
56825;BME280;42705;50.326;18.772;2024-02-21T15:04:08;98582.80;;;7.79;69.54
56825;BME280;42705;50.326;18.772;2024-02-21T15:09:31;98579.55;;;7.51;69.67
56825;BME280;42705;50.326;18.772;2024-02-21T15:14:52;98583.05;;;7.36;70.18
56825;BME280;42705;50.326;18.772;2024-02-21T15:20:14;98575.69;;;7.37;70.40
56825;BME280;42705;50.326;18.772;2024-02-21T15:25:37;98565.48;;;7.96;69.61
56825;BME280;42705;50.326;18.772;2024-02-21T15:30:58;98558.66;;;8.79;68.79
56825;BME280;42705;50.326;18.772;2024-02-21T15:36:21;98542.89;;;9.36;68.60
56825;BME280;42705;50.326;18.772;2024-02-21T15:41:43;98542.77;;;8.96;68.41
56825;BME280;42705;50.326;18.772;2024-02-21T15:47:04;98538.64;;;8.41;68.74
56825;BME280;42705;50.326;18.772;2024-02-21T15:52:26;98537.73;;;8.01;69.01
56825;BME280;42705;50.326;18.772;2024-02-21T15:57:48;98528.08;;;7.73;69.51
56825;BME280;42705;50.326;18.772;2024-02-21T16:03:11;98523.56;;;7.51;69.81
56825;BME280;42705;50.326;18.772;2024-02-21T16:08:33;98525.90;;;7.27;70.13
56825;BME280;42705;50.326;18.772;2024-02-21T16:14:01;98530.36;;;7.07;70.55
56825;BME280;42705;50.326;18.772;2024-02-21T16:19:25;98531.11;;;6.94;70.96
56825;BME280;42705;50.326;18.772;2024-02-21T16:24:47;98529.79;;;6.81;71.14
56825;BME280;42705;50.326;18.772;2024-02-21T16:30:11;98537.27;;;6.69;71.68
56825;BME280;42705;50.326;18.772;2024-02-21T16:35:33;98525.75;;;6.63;71.92
56825;BME280;42705;50.326;18.772;2024-02-21T16:40:55;98515.96;;;6.57;71.99
56825;BME280;42705;50.326;18.772;2024-02-21T16:46:17;98515.36;;;6.49;72.04
56825;BME280;42705;50.326;18.772;2024-02-21T16:51:40;98509.86;;;6.46;71.96
56825;BME280;42705;50.326;18.772;2024-02-21T16:57:02;98509.88;;;6.41;71.94
56825;BME280;42705;50.326;18.772;2024-02-21T17:02:24;98518.13;;;6.34;71.91
56825;BME280;42705;50.326;18.772;2024-02-21T17:14:03;98521.73;;;6.22;72.08
56825;BME280;42705;50.326;18.772;2024-02-21T17:19:25;98521.20;;;6.15;72.04
56825;BME280;42705;50.326;18.772;2024-02-21T17:24:46;98525.41;;;6.10;71.91
56825;BME280;42705;50.326;18.772;2024-02-21T17:30:09;98522.18;;;6.06;72.18
56825;BME280;42705;50.326;18.772;2024-02-21T17:35:31;98506.48;;;6.03;72.31
56825;BME280;42705;50.326;18.772;2024-02-21T17:40:56;98499.20;;;5.98;72.29
56825;BME280;42705;50.326;18.772;2024-02-21T17:46:18;98501.88;;;5.97;72.42
56825;BME280;42705;50.326;18.772;2024-02-21T17:51:42;98493.83;;;5.95;72.60
56825;BME280;42705;50.326;18.772;2024-02-21T17:57:05;98492.73;;;5.91;72.56
56825;BME280;42705;50.326;18.772;2024-02-21T18:02:28;98493.77;;;5.88;72.67
56825;BME280;42705;50.326;18.772;2024-02-21T18:07:50;98483.86;;;5.86;72.69
56825;BME280;42705;50.326;18.772;2024-02-21T18:13:12;98477.88;;;5.80;72.83
56825;BME280;42705;50.326;18.772;2024-02-21T18:18:35;98473.43;;;5.74;72.80
56825;BME280;42705;50.326;18.772;2024-02-21T18:23:57;98468.37;;;5.73;72.82
56825;BME280;42705;50.326;18.772;2024-02-21T18:29:19;98460.98;;;5.69;72.89
56825;BME280;42705;50.326;18.772;2024-02-21T18:34:42;98448.10;;;5.63;73.09
56825;BME280;42705;50.326;18.772;2024-02-21T18:40:06;98440.11;;;5.61;72.99
56825;BME280;42705;50.326;18.772;2024-02-21T18:45:33;98433.30;;;5.58;73.45
56825;BME280;42705;50.326;18.772;2024-02-21T18:50:55;98423.35;;;5.52;73.25
56825;BME280;42705;50.326;18.772;2024-02-21T18:56:17;98415.89;;;5.47;73.56
56825;BME280;42705;50.326;18.772;2024-02-21T19:01:39;98415.60;;;5.47;73.61
56825;BME280;42705;50.326;18.772;2024-02-21T19:07:01;98411.40;;;5.42;73.60
56825;BME280;42705;50.326;18.772;2024-02-21T19:12:23;98410.72;;;5.40;73.79
56825;BME280;42705;50.326;18.772;2024-02-21T19:17:45;98408.70;;;5.39;73.77
56825;BME280;42705;50.326;18.772;2024-02-21T19:23:07;98407.27;;;5.34;73.89
56825;BME280;42705;50.326;18.772;2024-02-21T19:28:30;98403.06;;;5.28;74.05
56825;BME280;42705;50.326;18.772;2024-02-21T19:33:53;98399.67;;;5.27;74.04
56825;BME280;42705;50.326;18.772;2024-02-21T19:39:16;98394.10;;;5.27;74.10
56825;BME280;42705;50.326;18.772;2024-02-21T19:44:37;98388.38;;;5.22;74.09
56825;BME280;42705;50.326;18.772;2024-02-21T19:49:59;98384.23;;;5.17;74.10
56825;BME280;42705;50.326;18.772;2024-02-21T19:55:22;98382.46;;;5.15;74.13
56825;BME280;42705;50.326;18.772;2024-02-21T20:00:44;98377.35;;;5.11;74.31
56825;BME280;42705;50.326;18.772;2024-02-21T20:06:06;98369.13;;;5.07;74.36
56825;BME280;42705;50.326;18.772;2024-02-21T20:11:28;98364.06;;;5.08;74.45
56825;BME280;42705;50.326;18.772;2024-02-21T20:16:51;98353.05;;;5.07;74.46
56825;BME280;42705;50.326;18.772;2024-02-21T20:22:13;98345.52;;;5.03;74.68
56825;BME280;42705;50.326;18.772;2024-02-21T20:27:36;98344.12;;;5.01;74.50
56825;BME280;42705;50.326;18.772;2024-02-21T20:32:59;98337.66;;;5.00;74.53
56825;BME280;42705;50.326;18.772;2024-02-21T20:38:23;98331.27;;;4.97;74.68
56825;BME280;42705;50.326;18.772;2024-02-21T20:43:45;98327.98;;;4.92;74.46
56825;BME280;42705;50.326;18.772;2024-02-21T20:49:07;98328.92;;;4.90;74.60
56825;BME280;42705;50.326;18.772;2024-02-21T20:54:29;98333.34;;;4.89;74.67
56825;BME280;42705;50.326;18.772;2024-02-21T20:59:51;98328.55;;;4.86;74.59
56825;BME280;42705;50.326;18.772;2024-02-21T21:05:14;98322.78;;;4.84;74.60
56825;BME280;42705;50.326;18.772;2024-02-21T21:10:36;98315.48;;;4.85;74.74
56825;BME280;42705;50.326;18.772;2024-02-21T21:15:58;98306.20;;;4.81;74.67
56825;BME280;42705;50.326;18.772;2024-02-21T21:21:20;98296.39;;;4.83;74.70
56825;BME280;42705;50.326;18.772;2024-02-21T21:26:42;98285.89;;;4.80;74.72
56825;BME280;42705;50.326;18.772;2024-02-21T21:32:05;98270.06;;;4.76;74.74
56825;BME280;42705;50.326;18.772;2024-02-21T21:37:27;98259.58;;;4.75;74.77
56825;BME280;42705;50.326;18.772;2024-02-21T21:42:50;98247.71;;;4.74;74.73
56825;BME280;42705;50.326;18.772;2024-02-21T21:48:12;98238.39;;;4.69;74.71
56825;BME280;42705;50.326;18.772;2024-02-21T21:53:35;98230.55;;;4.64;74.75
56825;BME280;42705;50.326;18.772;2024-02-21T21:58:57;98220.50;;;4.64;74.93
56825;BME280;42705;50.326;18.772;2024-02-21T22:04:19;98214.48;;;4.64;74.96
56825;BME280;42705;50.326;18.772;2024-02-21T22:09:41;98207.27;;;4.61;74.91
56825;BME280;42705;50.326;18.772;2024-02-21T22:15:03;98200.35;;;4.61;74.91
56825;BME280;42705;50.326;18.772;2024-02-21T22:20:28;98194.27;;;4.66;74.94
56825;BME280;42705;50.326;18.772;2024-02-21T22:25:55;98186.09;;;4.67;74.93
56825;BME280;42705;50.326;18.772;2024-02-21T22:31:17;98178.59;;;4.65;74.86
56825;BME280;42705;50.326;18.772;2024-02-21T22:36:39;98167.80;;;4.67;74.79
56825;BME280;42705;50.326;18.772;2024-02-21T22:42:01;98162.06;;;4.69;74.81
56825;BME280;42705;50.326;18.772;2024-02-21T22:47:23;98161.61;;;4.68;74.79
56825;BME280;42705;50.326;18.772;2024-02-21T22:52:45;98146.83;;;4.69;74.71
56825;BME280;42705;50.326;18.772;2024-02-21T22:58:07;98137.28;;;4.72;74.65
56825;BME280;42705;50.326;18.772;2024-02-21T23:03:29;98133.27;;;4.73;74.61
56825;BME280;42705;50.326;18.772;2024-02-21T23:08:51;98126.77;;;4.74;74.42
56825;BME280;42705;50.326;18.772;2024-02-21T23:14:15;98118.69;;;4.78;74.34
56825;BME280;42705;50.326;18.772;2024-02-21T23:19:39;98112.26;;;4.81;74.36
56825;BME280;42705;50.326;18.772;2024-02-21T23:25:01;98113.05;;;4.82;74.29
56825;BME280;42705;50.326;18.772;2024-02-21T23:30:23;98107.41;;;4.86;74.29
56825;BME280;42705;50.326;18.772;2024-02-21T23:35:45;98101.11;;;4.89;74.19
56825;BME280;42705;50.326;18.772;2024-02-21T23:41:06;98095.67;;;4.85;73.99
56825;BME280;42705;50.326;18.772;2024-02-21T23:46:28;98084.92;;;4.78;73.79
56825;BME280;42705;50.326;18.772;2024-02-21T23:51:50;98077.35;;;4.78;73.76
56825;BME280;42705;50.326;18.772;2024-02-21T23:57:14;98063.99;;;4.78;73.63
